createdAt,value
2022-09-27T00:01:49.724Z,16.85
2022-09-27T00:04:16.408Z,6.45
2022-09-27T00:06:43.032Z,11.13
2022-09-27T00:09:10.821Z,9.23
2022-09-27T00:11:39.842Z,9.70
2022-09-27T00:14:08.435Z,10.27
2022-09-27T00:16:37.998Z,15.75
2022-09-27T00:19:07.782Z,7.55
2022-09-27T00:21:35.451Z,10.65
2022-09-27T00:24:02.455Z,11.55
2022-09-27T00:26:29.473Z,13.35
2022-09-27T00:28:56.171Z,11.30
2022-09-27T00:31:29.699Z,10.90
2022-09-27T00:33:58.753Z,10.95
2022-09-27T00:36:27.156Z,10.57
2022-09-27T00:38:54.068Z,10.02
2022-09-27T00:41:24.407Z,11.77
2022-09-27T00:44:29.425Z,5.60
2022-09-27T00:47:11.832Z,12.07
2022-09-27T00:49:44.393Z,13.07
2022-09-27T00:52:44.235Z,6.43
2022-09-27T00:55:20.719Z,6.97
2022-09-27T00:57:49.565Z,9.02
2022-09-27T01:00:17.361Z,7.43
2022-09-27T01:02:53.429Z,6.78
2022-09-27T01:05:23.823Z,12.50
2022-09-27T01:07:50.840Z,12.27
2022-09-27T01:10:19.726Z,9.52
2022-09-27T01:13:07.535Z,6.55
2022-09-27T01:15:37.099Z,9.98
2022-09-27T01:18:39.359Z,6.93
2022-09-27T01:21:25.203Z,11.20
2022-09-27T01:24:31.335Z,7.15
2022-09-27T01:27:22.228Z,7.50
2022-09-27T01:30:15.129Z,12.50
2022-09-27T01:32:56.883Z,9.73
2022-09-27T01:35:52.728Z,7.30
2022-09-27T01:38:32.175Z,9.07
2022-09-27T01:41:19.439Z,9.95
2022-09-27T01:44:14.839Z,9.52
2022-09-27T01:46:55.550Z,16.35
2022-09-27T01:49:33.138Z,9.98
2022-09-27T01:52:06.438Z,9.88
2022-09-27T01:57:11.660Z,7.25
2022-09-27T01:59:47.643Z,8.70
2022-09-27T02:02:17.985Z,12.05
2022-09-27T02:04:48.319Z,8.93
2022-09-27T02:07:23.715Z,9.48
2022-09-27T02:09:55.492Z,11.82
2022-09-27T02:12:26.418Z,8.95
2022-09-27T02:15:01.718Z,7.63
2022-09-27T02:17:42.499Z,10.25
2022-09-27T02:20:28.756Z,11.75
2022-09-27T02:23:10.895Z,11.02
2022-09-27T02:25:37.453Z,7.93
2022-09-27T02:28:07.252Z,12.32
2022-09-27T02:30:34.215Z,6.18
2022-09-27T02:33:02.988Z,8.95
2022-09-27T02:35:35.080Z,9.32
2022-09-27T02:38:04.186Z,11.77
2022-09-27T02:40:33.405Z,10.68
2022-09-27T02:43:03.106Z,7.90
2022-09-27T02:45:38.418Z,6.75
2022-09-27T02:48:29.887Z,7.13
2022-09-27T02:50:59.662Z,5.88
2022-09-27T02:53:29.269Z,7.80
2022-09-27T02:56:27.406Z,6.47
2022-09-27T02:59:01.662Z,10.98
2022-09-27T03:01:39.411Z,7.68
2022-09-27T03:04:39.388Z,8.68
2022-09-27T03:07:07.249Z,7.57
2022-09-27T03:09:49.816Z,12.50
2022-09-27T03:12:22.692Z,8.63
2022-09-27T03:14:50.124Z,11.85
2022-09-27T03:17:17.458Z,8.50
2022-09-27T03:19:44.214Z,11.25
2022-09-27T03:22:10.914Z,10.98
2022-09-27T03:24:37.601Z,7.35
2022-09-27T03:27:04.360Z,13.63
2022-09-27T03:29:31.033Z,11.15
2022-09-27T03:31:57.953Z,12.85
2022-09-27T03:34:24.709Z,12.88
2022-09-27T03:36:52.054Z,10.07
2022-09-27T03:39:18.675Z,8.38
2022-09-27T03:41:45.298Z,10.98
2022-09-27T03:44:11.975Z,13.55
2022-09-27T03:46:38.731Z,17.00
2022-09-27T03:49:05.391Z,9.60
2022-09-27T03:51:32.156Z,9.57
2022-09-27T03:53:58.788Z,7.28
2022-09-27T03:56:25.458Z,9.15
2022-09-27T03:58:52.125Z,7.22
2022-09-27T04:01:19.091Z,11.20
2022-09-27T04:03:46.278Z,6.25
2022-09-27T04:06:14.093Z,13.18
2022-09-27T04:08:40.837Z,8.55
2022-09-27T04:11:07.696Z,14.38
2022-09-27T04:13:34.641Z,6.90
2022-09-27T04:16:03.039Z,8.75
2022-09-27T04:18:29.922Z,6.95
2022-09-27T04:20:56.640Z,10.52
2022-09-27T04:23:29.038Z,9.88
2022-09-27T04:28:23.822Z,7.60
2022-09-27T04:30:50.851Z,6.22
2022-09-27T04:33:17.715Z,6.53
2022-09-27T04:36:02.852Z,4.57
2022-09-27T04:38:29.528Z,7.05
2022-09-27T04:40:56.529Z,8.60
2022-09-27T04:43:23.683Z,7.53
2022-09-27T04:45:50.443Z,6.00
2022-09-27T04:48:17.215Z,5.70
2022-09-27T04:50:43.857Z,4.25
2022-09-27T04:53:15.251Z,4.95
2022-09-27T04:55:46.633Z,7.55
2022-09-27T04:58:13.324Z,5.53
2022-09-27T05:00:41.481Z,5.88
2022-09-27T05:03:08.138Z,5.82
2022-09-27T05:05:34.798Z,5.35
2022-09-27T05:08:01.733Z,4.35
2022-09-27T05:10:28.389Z,6.35
2022-09-27T05:12:55.013Z,3.03
2022-09-27T05:15:21.724Z,4.35
2022-09-27T05:17:51.966Z,8.52
2022-09-27T05:20:19.719Z,4.72
2022-09-27T05:22:46.784Z,5.68
2022-09-27T05:25:13.778Z,5.25
2022-09-27T05:27:40.963Z,6.70
2022-09-27T05:30:08.383Z,4.70
2022-09-27T05:32:35.567Z,5.32
2022-09-27T05:35:02.523Z,3.97
2022-09-27T05:37:33.074Z,4.80
2022-09-27T05:40:01.233Z,2.75
2022-09-27T05:42:39.155Z,4.10
2022-09-27T05:45:07.243Z,5.10
2022-09-27T05:47:33.942Z,3.92
2022-09-27T05:50:00.653Z,4.07
2022-09-27T05:52:27.367Z,6.85
2022-09-27T05:54:54.022Z,6.55
2022-09-27T05:57:20.735Z,2.92
2022-09-27T05:59:47.920Z,3.10
2022-09-27T06:02:14.661Z,4.10
2022-09-27T06:04:41.399Z,5.50
2022-09-27T06:07:08.028Z,5.07
2022-09-27T06:09:34.653Z,3.13
2022-09-27T06:12:01.467Z,5.95
2022-09-27T06:14:28.116Z,8.25
2022-09-27T06:16:55.217Z,3.15
2022-09-27T06:19:22.141Z,3.25
2022-09-27T06:21:52.027Z,7.57
2022-09-27T06:24:18.619Z,5.15
2022-09-27T06:26:45.550Z,4.68
2022-09-27T06:29:12.361Z,7.40
2022-09-27T06:31:39.054Z,7.55
2022-09-27T06:34:05.670Z,5.70
2022-09-27T06:36:33.418Z,4.85
2022-09-27T06:39:01.752Z,6.88
2022-09-27T06:41:28.458Z,10.60
2022-09-27T06:43:55.727Z,4.20
2022-09-27T06:46:22.404Z,8.07
2022-09-27T06:48:49.192Z,6.13
2022-09-27T06:51:16.174Z,6.13
2022-09-27T06:53:43.393Z,4.68
2022-09-27T06:56:10.132Z,5.95
2022-09-27T06:58:55.557Z,9.48
2022-09-27T07:01:22.307Z,8.30
2022-09-27T07:03:52.244Z,8.98
2022-09-27T07:06:22.584Z,9.88
2022-09-27T07:08:53.624Z,7.70
2022-09-27T07:11:23.635Z,12.40
2022-09-27T07:13:50.899Z,7.13
2022-09-27T07:16:18.116Z,8.88
2022-09-27T07:18:44.952Z,5.20
2022-09-27T07:21:13.068Z,6.22
2022-09-27T07:23:39.869Z,9.98
2022-09-27T07:26:07.283Z,6.30
2022-09-27T07:28:35.154Z,4.72
2022-09-27T07:31:03.636Z,6.97
2022-09-27T07:33:31.479Z,4.15
2022-09-27T07:35:58.262Z,5.72
2022-09-27T07:38:25.035Z,4.68
2022-09-27T07:40:52.156Z,6.85
2022-09-27T07:43:19.694Z,7.30
2022-09-27T07:45:47.067Z,8.98
2022-09-27T07:48:15.952Z,5.30
2022-09-27T07:50:43.155Z,5.80
2022-09-27T07:53:12.934Z,5.35
2022-09-27T07:55:40.642Z,4.97
2022-09-27T07:58:10.405Z,7.35
2022-09-27T08:00:38.400Z,5.38
2022-09-27T08:03:07.049Z,5.50
2022-09-27T08:05:35.270Z,2.53
2022-09-27T08:08:02.707Z,3.88
2022-09-27T08:10:31.564Z,4.10
2022-09-27T08:12:59.639Z,3.22
2022-09-27T08:15:28.780Z,2.75
2022-09-27T08:28:40.290Z,3.90
2022-09-27T08:31:07.602Z,1.58
2022-09-27T08:36:19.769Z,1.95
2022-09-27T08:41:39.464Z,2.38
2022-09-27T08:44:15.339Z,2.05
2022-09-27T08:47:03.999Z,4.25
2022-09-27T08:49:43.587Z,2.03
2022-09-27T08:52:21.366Z,5.68
2022-09-27T08:54:49.937Z,2.72
2022-09-27T08:57:17.974Z,2.97
2022-09-27T08:59:54.604Z,2.50
2022-09-27T09:02:27.517Z,2.80
2022-09-27T09:04:58.905Z,1.65
2022-09-27T09:07:59.024Z,3.17
2022-09-27T09:10:53.716Z,1.45
2022-09-27T09:13:58.004Z,3.03
2022-09-27T09:16:43.460Z,3.40
2022-09-27T09:19:41.353Z,3.72
2022-09-27T09:22:29.209Z,3.85
2022-09-27T09:24:56.075Z,4.63
2022-09-27T09:27:31.892Z,6.00
2022-09-27T09:30:22.261Z,4.05
2022-09-27T09:33:06.397Z,3.47
2022-09-27T09:35:41.685Z,3.92
2022-09-27T09:38:38.481Z,3.85
2022-09-27T09:41:17.422Z,3.05
2022-09-27T09:43:52.637Z,2.55
2022-09-27T09:46:25.527Z,3.63
2022-09-27T09:48:56.418Z,2.65
2022-09-27T09:51:30.261Z,4.60
2022-09-27T09:54:03.403Z,5.47
2022-09-27T09:56:34.401Z,4.47
2022-09-27T09:59:09.303Z,6.18
2022-09-27T10:01:41.516Z,4.15
2022-09-27T10:04:23.379Z,3.78
2022-09-27T10:06:51.910Z,3.83
2022-09-27T10:09:24.587Z,6.47
2022-09-27T10:11:51.696Z,7.53
2022-09-27T10:14:20.993Z,4.32
2022-09-27T10:16:57.665Z,2.67
2022-09-27T10:19:30.946Z,3.10
2022-09-27T10:24:56.375Z,3.20
2022-09-27T10:27:27.632Z,4.10
2022-09-27T10:30:01.009Z,2.38
2022-09-27T10:32:36.491Z,3.35
2022-09-27T10:35:41.208Z,2.03
2022-09-27T10:38:23.066Z,3.47
2022-09-27T10:40:54.076Z,3.97
2022-09-27T10:43:34.738Z,4.00
2022-09-27T10:46:15.515Z,1.85
2022-09-27T10:48:43.226Z,4.85
2022-09-27T11:02:42.695Z,2.03
2022-09-27T11:54:07.301Z,2.65
2022-09-27T11:57:26.764Z,4.57
2022-09-27T12:00:21.696Z,4.53
2022-09-27T12:03:10.126Z,3.05
2022-09-27T12:05:57.420Z,1.95
2022-09-27T12:08:55.447Z,4.05
2022-09-27T12:11:30.998Z,2.40
2022-09-27T12:14:04.088Z,4.30
2022-09-27T12:16:32.824Z,5.93
2022-09-27T12:19:02.294Z,5.28
2022-09-27T12:21:32.231Z,2.50
2022-09-27T12:23:59.516Z,2.05
2022-09-27T12:26:40.256Z,2.78
2022-09-27T12:29:19.107Z,3.38
2022-09-27T12:31:56.351Z,2.70
2022-09-27T12:34:31.664Z,3.25
2022-09-27T12:37:33.936Z,2.85
2022-09-27T12:40:14.456Z,6.22
2022-09-27T12:42:49.294Z,6.80
2022-09-27T12:45:21.558Z,6.80
2022-09-27T12:47:58.054Z,4.57
2022-09-27T12:50:30.696Z,5.63
2022-09-27T12:53:08.368Z,5.57
2022-09-27T12:56:10.920Z,5.75
2022-09-27T12:59:06.906Z,7.20
2022-09-27T13:01:45.824Z,7.40
2022-09-27T13:04:18.631Z,9.63
2022-09-27T13:07:11.369Z,5.40
2022-09-27T13:09:58.999Z,5.83
2022-09-27T13:15:29.704Z,6.43
2022-09-27T16:51:00.909Z,7.63
2022-09-27T17:34:03.243Z,15.95
2022-09-27T17:36:37.631Z,17.00
2022-09-27T17:39:05.240Z,13.23
2022-09-27T17:41:37.580Z,10.10
2022-09-27T17:44:06.714Z,8.57
2022-09-27T17:46:35.935Z,5.65
2022-09-27T17:49:21.541Z,8.13
2022-09-27T17:51:50.931Z,11.30
2022-09-27T17:54:19.795Z,9.00
2022-09-27T17:56:47.760Z,10.85
2022-09-27T17:59:16.180Z,11.93
2022-09-27T18:01:44.545Z,9.95
2022-09-27T18:04:14.754Z,8.30
2022-09-27T18:06:44.131Z,9.32
2022-09-27T18:09:13.039Z,9.63
2022-09-27T18:11:40.617Z,12.15
2022-09-27T18:27:34.822Z,8.85
2022-09-27T18:30:03.645Z,10.30
2022-09-27T18:32:34.081Z,7.35
2022-09-27T18:35:01.323Z,9.63
2022-09-27T18:37:30.986Z,8.38
2022-09-27T18:39:57.938Z,9.27
2022-09-27T18:42:27.638Z,3.60
2022-09-27T18:44:55.363Z,10.68
2022-09-27T18:47:23.730Z,6.40
2022-09-27T18:49:50.920Z,7.10
2022-09-27T18:52:17.904Z,10.80
2022-09-27T18:54:45.302Z,8.32
2022-09-27T18:57:12.226Z,7.78
2022-09-27T18:59:39.220Z,5.32
2022-09-27T19:02:05.990Z,8.13
2022-09-27T19:04:32.763Z,7.35
2022-09-27T19:06:59.630Z,10.27
2022-09-27T19:09:27.232Z,8.88
2022-09-27T19:12:37.383Z,6.35
2022-09-27T19:15:04.484Z,7.43
2022-09-27T19:17:31.259Z,5.85
2022-09-27T19:19:57.977Z,11.23
2022-09-27T19:22:24.773Z,10.30
2022-09-27T19:24:51.780Z,10.77
2022-09-27T19:27:18.570Z,11.40
2022-09-27T19:29:46.585Z,10.50
2022-09-27T19:32:13.347Z,18.30
2022-09-27T19:34:40.016Z,14.07
2022-09-27T19:37:06.976Z,13.23
2022-09-27T19:39:33.716Z,12.85
2022-09-27T19:42:00.486Z,11.57
2022-09-27T19:44:27.232Z,10.30
2022-09-27T19:46:54.013Z,8.23
2022-09-27T19:49:20.870Z,7.65
2022-09-27T19:51:47.672Z,7.75
2022-09-27T19:54:14.456Z,6.93
2022-09-27T19:56:41.167Z,7.50
2022-09-27T19:59:07.871Z,4.07
2022-09-27T20:01:35.019Z,6.45
2022-09-27T20:04:02.523Z,5.07
2022-09-27T20:06:29.263Z,5.60
2022-09-27T20:08:55.950Z,7.55
2022-09-27T20:14:04.203Z,8.43
2022-09-27T20:16:31.429Z,6.75
2022-09-27T20:19:00.034Z,5.43
2022-09-27T20:21:30.070Z,7.15
2022-09-27T20:23:57.446Z,4.07
2022-09-27T20:26:26.550Z,5.45
2022-09-27T20:28:55.183Z,6.00
2022-09-27T20:31:24.878Z,5.25
2022-09-27T20:33:52.034Z,6.07
2022-09-27T20:36:20.079Z,4.03
2022-09-27T20:38:59.589Z,3.70
2022-09-27T20:41:35.716Z,3.58
2022-09-27T20:44:05.458Z,6.25
2022-09-27T20:46:33.380Z,4.72
2022-09-27T20:49:05.915Z,5.60
2022-09-27T20:51:34.368Z,4.95
2022-09-27T20:54:05.652Z,9.10
2022-09-27T20:56:34.961Z,8.40
2022-09-27T20:59:05.147Z,6.88
2022-09-27T21:01:32.460Z,12.55
2022-09-27T21:04:01.996Z,8.07
2022-09-27T21:06:31.619Z,4.18
2022-09-27T21:08:59.702Z,5.18
2022-09-27T21:11:26.617Z,4.57
2022-09-27T21:13:54.567Z,2.95
2022-09-27T21:16:26.492Z,4.70
2022-09-27T21:18:54.873Z,6.65
2022-09-27T21:21:23.487Z,3.58
2022-09-27T21:23:55.567Z,5.30
2022-09-27T21:26:23.383Z,8.55
2022-09-27T21:28:52.669Z,4.13
2022-09-27T21:31:23.023Z,3.55
2022-09-27T21:33:55.292Z,6.75
2022-09-27T21:36:27.761Z,10.05
2022-09-27T21:38:54.848Z,3.90
2022-09-27T21:41:21.825Z,5.72
2022-09-27T21:43:49.023Z,2.95
2022-09-27T21:46:18.762Z,4.75
2022-09-27T21:48:48.074Z,5.18
2022-09-27T21:51:20.552Z,4.07
2022-09-27T21:53:55.838Z,2.70
2022-09-27T21:56:24.841Z,4.00
2022-09-27T21:58:51.512Z,4.85
2022-09-27T22:01:21.931Z,4.32
2022-09-27T22:03:50.344Z,2.97
2022-09-27T22:06:22.981Z,3.67
2022-09-27T22:08:50.532Z,4.10
2022-09-27T22:11:23.453Z,3.88
2022-09-27T22:13:50.696Z,3.15
2022-09-27T22:16:19.982Z,3.45
2022-09-27T22:18:48.553Z,3.15
2022-09-27T22:21:18.175Z,4.57
2022-09-27T22:23:45.635Z,3.33
2022-09-27T22:26:13.741Z,5.72
2022-09-27T22:28:40.912Z,8.85
2022-09-27T22:31:08.885Z,6.13
2022-09-27T22:33:35.817Z,7.47
2022-09-27T22:36:03.500Z,5.43
2022-09-27T22:38:30.934Z,4.43
2022-09-27T22:40:59.903Z,6.22
2022-09-27T22:43:27.126Z,3.42
2022-09-27T22:45:53.946Z,6.47
2022-09-27T22:48:20.652Z,4.53
2022-09-27T22:50:47.289Z,3.15
2022-09-27T22:53:14.318Z,8.13
2022-09-27T22:55:41.195Z,5.80
2022-09-27T22:58:07.871Z,5.93
2022-09-27T23:00:35.012Z,5.88
2022-09-27T23:03:01.707Z,4.13
2022-09-27T23:05:28.452Z,14.93
2022-09-27T23:07:55.269Z,4.32
2022-09-27T23:10:23.502Z,5.13
2022-09-27T23:12:54.427Z,6.18
2022-09-27T23:15:21.063Z,2.95
2022-09-27T23:17:51.514Z,3.25
2022-09-27T23:20:18.615Z,3.35
2022-09-27T23:22:45.528Z,3.17
2022-09-27T23:25:12.297Z,6.13
2022-09-27T23:27:47.764Z,3.58
2022-09-27T23:30:19.711Z,5.15
2022-09-27T23:32:52.552Z,3.50
2022-09-27T23:35:19.256Z,6.22
2022-09-27T23:37:45.915Z,4.78
2022-09-27T23:40:12.629Z,3.30
2022-09-27T23:42:39.488Z,3.65
2022-09-27T23:45:06.584Z,2.13
2022-09-27T23:47:33.212Z,3.78
2022-09-27T23:49:59.837Z,4.72
2022-09-27T23:52:26.568Z,4.47
2022-09-27T23:54:53.278Z,3.67
2022-09-27T23:57:19.853Z,2.53
2022-09-27T23:59:46.564Z,4.18
